createdAt,value
2022-12-19T00:01:48.192Z,4.30
2022-12-19T00:04:54.646Z,3.80
2022-12-19T00:08:03.092Z,2.40
2022-12-19T00:11:18.396Z,3.73
2022-12-19T00:14:23.492Z,5.40
2022-12-19T00:17:29.819Z,6.10
2022-12-19T00:20:34.704Z,4.43
2022-12-19T00:23:40.010Z,9.87
2022-12-19T00:26:44.954Z,2.57
2022-12-19T00:29:49.852Z,5.53
2022-12-19T00:32:56.338Z,8.47
2022-12-19T00:36:03.487Z,2.60
2022-12-19T00:39:11.819Z,8.07
2022-12-19T00:42:16.845Z,7.20
2022-12-19T00:45:22.380Z,2.90
2022-12-19T00:48:30.278Z,6.30
2022-12-19T00:51:37.124Z,4.27
2022-12-19T00:54:42.128Z,2.83
2022-12-19T00:57:47.098Z,5.33
2022-12-19T01:00:52.066Z,2.60
2022-12-19T01:07:26.124Z,2.93
2022-12-19T01:10:31.095Z,10.93
2022-12-19T01:13:36.564Z,2.13
2022-12-19T01:16:47.050Z,5.97
2022-12-19T01:19:53.406Z,2.57
2022-12-19T01:23:00.291Z,3.20
2022-12-19T01:26:06.315Z,4.70
2022-12-19T01:29:12.660Z,7.33
2022-12-19T01:32:17.525Z,3.47
2022-12-19T01:35:24.076Z,3.20
2022-12-19T01:38:29.115Z,1.93
2022-12-19T01:41:33.996Z,4.10
2022-12-19T01:44:41.467Z,1.90
2022-12-19T01:47:51.223Z,2.40
2022-12-19T01:51:03.426Z,3.73
2022-12-19T01:54:10.048Z,7.77
2022-12-19T01:57:16.512Z,5.50
2022-12-19T02:00:21.811Z,5.47
2022-12-19T02:03:30.028Z,2.43
2022-12-19T02:06:36.830Z,4.70
2022-12-19T02:09:42.030Z,6.97
2022-12-19T02:12:47.910Z,3.07
2022-12-19T02:15:59.241Z,3.07
2022-12-19T02:19:19.611Z,1.83
2022-12-19T02:22:31.188Z,5.97
2022-12-19T02:25:51.963Z,3.90
2022-12-19T02:29:22.542Z,6.83
2022-12-19T02:32:36.247Z,2.50
2022-12-19T02:35:45.537Z,2.00
2022-12-19T02:38:55.581Z,7.70
2022-12-19T02:42:02.484Z,5.07
2022-12-19T02:45:09.904Z,5.07
2022-12-19T02:48:19.326Z,7.23
2022-12-19T02:51:25.474Z,3.57
2022-12-19T02:54:30.895Z,5.13
2022-12-19T02:57:44.613Z,5.13
2022-12-19T03:00:56.759Z,7.17
2022-12-19T03:04:12.070Z,6.00
2022-12-19T03:07:26.166Z,10.70
2022-12-19T03:10:35.434Z,5.20
2022-12-19T03:13:45.569Z,6.70
2022-12-19T03:16:51.599Z,5.40
2022-12-19T03:19:58.225Z,3.40
2022-12-19T03:23:03.317Z,9.30
2022-12-19T03:26:11.071Z,5.97
2022-12-19T03:29:18.970Z,5.87
2022-12-19T03:32:25.383Z,2.27
2022-12-19T03:35:32.969Z,4.03
2022-12-19T03:38:40.657Z,5.50
2022-12-19T03:42:03.595Z,2.00
2022-12-19T03:45:09.664Z,3.37
2022-12-19T03:48:18.336Z,3.03
2022-12-19T03:51:31.010Z,5.40
2022-12-19T03:54:40.567Z,5.73
2022-12-19T03:57:49.562Z,2.73
2022-12-19T04:00:55.361Z,2.80
2022-12-19T04:04:01.437Z,5.93
2022-12-19T04:07:08.152Z,2.93
2022-12-19T04:10:15.991Z,5.00
2022-12-19T04:13:24.687Z,6.77
2022-12-19T04:16:33.948Z,7.20
2022-12-19T04:19:45.129Z,4.90
2022-12-19T04:22:54.539Z,3.47
2022-12-19T04:26:03.000Z,8.30
2022-12-19T04:29:08.425Z,3.53
2022-12-19T04:32:15.317Z,3.37
2022-12-19T04:35:20.633Z,4.87
2022-12-19T04:38:27.465Z,3.93
2022-12-19T04:41:33.400Z,7.03
2022-12-19T04:44:38.450Z,7.70
2022-12-19T04:47:43.752Z,6.83
2022-12-19T04:50:48.877Z,6.20
2022-12-19T04:53:55.340Z,8.20
2022-12-19T04:57:00.523Z,4.47
2022-12-19T05:00:08.630Z,10.90
2022-12-19T05:03:13.685Z,10.60
2022-12-19T05:06:18.734Z,9.50
2022-12-19T05:09:25.556Z,13.27
2022-12-19T05:12:30.800Z,8.57
2022-12-19T05:15:35.961Z,9.97
2022-12-19T05:18:41.501Z,8.60
2022-12-19T05:21:46.892Z,12.20
2022-12-19T05:24:53.526Z,13.23
2022-12-19T05:27:58.798Z,9.43
2022-12-19T05:31:08.179Z,11.77
2022-12-19T05:34:13.379Z,13.60
2022-12-19T05:37:18.921Z,15.93
2022-12-19T05:40:25.442Z,16.77
2022-12-19T05:43:30.930Z,17.20
2022-12-19T05:46:36.145Z,17.17
2022-12-19T05:49:41.035Z,13.57
2022-12-19T05:52:46.637Z,16.30
2022-12-19T05:55:53.386Z,15.57
2022-12-19T05:59:01.071Z,13.53
2022-12-19T06:02:06.810Z,18.90
2022-12-19T06:05:12.772Z,21.23
2022-12-19T06:08:21.285Z,18.47
2022-12-19T06:11:28.541Z,19.20
2022-12-19T06:14:33.671Z,19.67
2022-12-19T06:17:38.606Z,19.43
2022-12-19T06:20:43.582Z,20.70
2022-12-19T06:23:49.661Z,19.77
2022-12-19T06:26:56.112Z,23.17
2022-12-19T06:30:01.714Z,26.47
2022-12-19T06:33:06.989Z,19.47
2022-12-19T06:36:18.235Z,24.90
2022-12-19T06:39:24.517Z,21.97
2022-12-19T06:42:33.423Z,21.87
2022-12-19T06:45:39.890Z,18.70
2022-12-19T06:48:46.059Z,23.13
2022-12-19T06:51:52.324Z,17.77
2022-12-19T06:54:57.695Z,19.07
2022-12-19T06:58:04.393Z,21.13
2022-12-19T07:01:17.005Z,21.23
2022-12-19T07:04:26.932Z,18.37
2022-12-19T07:07:32.798Z,23.13
2022-12-19T07:10:39.282Z,16.37
2022-12-19T07:13:47.597Z,13.83
2022-12-19T07:16:54.176Z,21.00
2022-12-19T07:20:00.593Z,19.73
2022-12-19T07:23:07.178Z,18.70
2022-12-19T07:26:13.626Z,16.80
2022-12-19T07:29:20.701Z,21.67
2022-12-19T07:32:25.990Z,20.53
2022-12-19T07:35:31.378Z,17.93
2022-12-19T07:38:36.976Z,23.70
2022-12-19T07:41:42.654Z,17.47
2022-12-19T07:44:49.381Z,23.57
2022-12-19T07:47:55.279Z,24.03
2022-12-19T07:51:00.711Z,21.93
2022-12-19T07:54:06.068Z,16.60
2022-12-19T07:57:11.273Z,21.70
2022-12-19T08:00:18.868Z,14.93
2022-12-19T08:03:24.742Z,18.67
2022-12-19T08:06:30.312Z,15.83
2022-12-19T08:09:35.922Z,16.47
2022-12-19T08:12:41.409Z,17.17
2022-12-19T08:15:48.448Z,11.13
2022-12-19T08:18:53.754Z,8.77
2022-12-19T08:21:59.495Z,14.03
2022-12-19T08:25:04.746Z,9.47
2022-12-19T08:28:10.224Z,9.20
2022-12-19T08:31:18.808Z,8.40
2022-12-19T08:34:24.048Z,6.60
2022-12-19T08:37:29.316Z,11.33
2022-12-19T08:40:34.447Z,9.23
2022-12-19T08:43:39.985Z,12.33
2022-12-19T08:46:49.967Z,7.53
2022-12-19T08:49:55.503Z,7.17
2022-12-19T08:53:00.614Z,4.97
2022-12-19T08:56:07.914Z,4.87
2022-12-19T08:59:13.427Z,4.30
2022-12-19T09:02:21.838Z,4.23
2022-12-19T09:06:04.492Z,3.93
2022-12-19T09:08:52.430Z,3.97
2022-12-19T09:11:59.968Z,4.27
2022-12-19T09:15:06.098Z,4.80
2022-12-19T09:18:15.342Z,4.37
2022-12-19T09:21:21.510Z,10.23
2022-12-19T09:24:26.666Z,7.30
2022-12-19T09:27:42.500Z,8.00
2022-12-19T09:30:58.181Z,7.63
2022-12-19T09:34:05.149Z,9.40
2022-12-19T09:37:16.444Z,7.80
2022-12-19T09:40:23.214Z,10.90
2022-12-19T09:43:41.094Z,7.77
2022-12-19T09:46:50.907Z,11.43
2022-12-19T09:49:57.644Z,11.73
2022-12-19T09:53:08.116Z,16.13
2022-12-19T09:56:17.218Z,15.80
2022-12-19T09:59:31.828Z,18.27
2022-12-19T10:02:50.700Z,11.60
2022-12-19T10:06:45.698Z,14.07
2022-12-19T10:12:12.718Z,17.33
2022-12-19T10:13:13.247Z,15.40
2022-12-19T10:16:22.935Z,19.77
2022-12-19T10:19:36.027Z,16.17
2022-12-19T10:22:49.319Z,16.77
2022-12-19T10:26:00.916Z,17.30
2022-12-19T10:29:25.001Z,12.60
2022-12-19T10:32:36.791Z,17.60
2022-12-19T10:35:45.397Z,17.00
2022-12-19T10:38:58.513Z,21.83
2022-12-19T10:42:10.948Z,18.13
2022-12-19T10:45:19.260Z,19.43
2022-12-19T10:48:30.796Z,14.60
2022-12-19T10:51:36.539Z,14.70
2022-12-19T10:54:44.293Z,14.07
2022-12-19T10:57:49.886Z,15.97
2022-12-19T11:01:14.178Z,17.90
2022-12-19T11:04:52.582Z,16.37
2022-12-19T11:08:12.509Z,19.37
2022-12-19T11:14:33.961Z,19.23
2022-12-19T11:18:47.493Z,19.33
2022-12-19T11:28:08.237Z,21.40
2022-12-19T11:29:39.512Z,14.37
2022-12-19T11:30:46.766Z,20.97
2022-12-19T11:30:59.584Z,15.77
2022-12-19T11:32:39.502Z,20.70
2022-12-19T11:35:51.278Z,17.03
2022-12-19T11:38:56.773Z,17.63
2022-12-19T11:42:10.089Z,17.83
2022-12-19T11:45:21.600Z,15.73
2022-12-19T11:48:35.856Z,17.60
2022-12-19T11:51:45.088Z,20.27
2022-12-19T11:54:59.623Z,21.03
2022-12-19T11:58:07.257Z,14.57
2022-12-19T12:01:19.793Z,19.37
2022-12-19T12:04:54.433Z,17.60
2022-12-19T12:09:02.011Z,17.87
2022-12-19T12:18:54.201Z,16.47
2022-12-19T12:28:38.957Z,17.57
2022-12-19T12:31:05.688Z,15.47
2022-12-19T12:31:21.757Z,18.77
2022-12-19T12:31:40.921Z,17.77
2022-12-19T12:31:57.251Z,17.93
2022-12-19T12:35:38.340Z,14.80
2022-12-19T12:40:49.967Z,17.23
2022-12-19T12:44:07.830Z,18.30
2022-12-19T12:47:19.131Z,17.27
2022-12-19T12:50:26.611Z,17.97
2022-12-19T12:53:35.550Z,19.40
2022-12-19T12:56:41.774Z,20.40
2022-12-19T12:59:48.768Z,16.83
2022-12-19T13:02:58.810Z,17.10
2022-12-19T13:06:11.719Z,17.60
2022-12-19T13:09:28.099Z,21.53
2022-12-19T13:13:02.570Z,21.07
2022-12-19T13:16:55.643Z,21.33
2022-12-19T13:20:41.644Z,19.07
2022-12-19T13:23:50.353Z,21.80
2022-12-19T13:26:59.080Z,17.97
2022-12-19T13:30:17.664Z,18.27
2022-12-19T13:33:23.279Z,17.90
2022-12-19T13:39:58.422Z,14.90
2022-12-19T13:40:30.631Z,21.77
2022-12-19T13:43:48.037Z,23.77
2022-12-19T13:46:54.308Z,16.97
2022-12-19T13:50:00.345Z,25.27
2022-12-19T13:53:13.115Z,19.80
2022-12-19T13:56:22.206Z,20.70
2022-12-19T13:59:32.180Z,22.17
2022-12-19T14:02:45.923Z,24.80
2022-12-19T14:06:17.424Z,22.97
2022-12-19T14:11:31.317Z,21.53
2022-12-19T14:13:46.812Z,14.87
2022-12-19T14:16:45.163Z,23.90
2022-12-19T14:19:53.597Z,17.50
2022-12-19T14:23:25.898Z,17.83
2022-12-19T14:28:23.675Z,23.23
2022-12-19T14:30:28.859Z,22.83
2022-12-19T14:33:58.913Z,19.57
2022-12-19T14:37:07.598Z,19.77
2022-12-19T14:40:23.746Z,22.63
2022-12-19T14:43:58.819Z,21.13
2022-12-19T14:52:34.153Z,25.03
2022-12-19T14:54:07.659Z,21.37
2022-12-19T14:58:51.228Z,22.53
2022-12-19T15:01:24.580Z,20.63
2022-12-19T15:04:52.889Z,14.60
2022-12-19T15:08:01.916Z,23.27
2022-12-19T15:11:48.830Z,25.80
2022-12-19T15:14:59.669Z,26.07
2022-12-19T15:18:18.420Z,22.60
2022-12-19T15:21:26.569Z,17.87
2022-12-19T15:24:35.236Z,16.67
2022-12-19T15:27:41.005Z,22.63
2022-12-19T15:30:49.381Z,18.43
2022-12-19T15:34:33.584Z,18.60
2022-12-19T15:37:26.250Z,21.67
2022-12-19T15:40:35.220Z,18.90
2022-12-19T15:44:02.996Z,20.57
2022-12-19T15:47:08.235Z,20.27
2022-12-19T15:50:20.204Z,15.63
2022-12-19T15:53:40.251Z,17.60
2022-12-19T15:56:57.073Z,19.23
2022-12-19T16:00:07.954Z,22.20
2022-12-19T16:03:25.704Z,23.20
2022-12-19T16:06:32.389Z,33.73
2022-12-19T16:09:53.276Z,21.83
2022-12-19T16:13:01.638Z,20.07
2022-12-19T16:16:16.143Z,22.63
2022-12-19T16:19:26.324Z,20.93
2022-12-19T16:22:34.122Z,25.17
2022-12-19T16:25:42.516Z,24.00
2022-12-19T16:28:53.366Z,25.23
2022-12-19T16:32:01.308Z,24.30
2022-12-19T16:35:24.014Z,24.23
2022-12-19T16:38:41.678Z,24.50
2022-12-19T16:41:47.864Z,24.63
2022-12-19T16:44:56.476Z,27.73
2022-12-19T16:48:02.388Z,27.60
2022-12-19T16:51:09.378Z,27.60
2022-12-19T16:54:15.489Z,30.80
2022-12-19T16:57:22.610Z,29.83
2022-12-19T17:00:34.856Z,27.43
2022-12-19T17:03:43.349Z,30.60
2022-12-19T17:06:49.319Z,29.30
2022-12-19T17:10:01.719Z,26.67
2022-12-19T17:13:08.932Z,36.07
2022-12-19T17:16:18.246Z,26.97
2022-12-19T17:19:27.818Z,25.40
2022-12-19T17:22:34.349Z,29.90
2022-12-19T17:25:40.862Z,21.30
2022-12-19T17:28:49.288Z,24.43
2022-12-19T17:31:57.007Z,21.17
2022-12-19T17:35:02.863Z,26.43
2022-12-19T17:38:16.719Z,26.10
2022-12-19T17:41:24.972Z,28.73
2022-12-19T17:44:40.215Z,37.53
2022-12-19T17:47:49.005Z,29.60
2022-12-19T17:50:55.148Z,27.70
2022-12-19T17:54:01.636Z,25.07
2022-12-19T17:57:06.930Z,28.60
2022-12-19T18:00:16.509Z,25.77
2022-12-19T18:03:26.948Z,26.60
2022-12-19T18:06:32.617Z,24.17
2022-12-19T18:09:38.115Z,30.30
2022-12-19T18:12:55.476Z,24.60
2022-12-19T18:16:02.292Z,28.23
2022-12-19T18:19:12.449Z,27.80
2022-12-19T18:22:30.161Z,26.93
2022-12-19T18:25:39.941Z,23.30
2022-12-19T18:28:49.064Z,27.90
2022-12-19T18:31:59.088Z,29.17
2022-12-19T18:35:06.953Z,25.73
2022-12-19T18:38:17.303Z,29.13
2022-12-19T18:41:26.144Z,25.70
2022-12-19T18:44:32.959Z,24.13
2022-12-19T18:47:44.511Z,27.37
2022-12-19T18:50:54.377Z,32.47
2022-12-19T18:54:02.271Z,26.53
2022-12-19T18:57:08.303Z,29.00
2022-12-19T19:00:18.101Z,24.37
2022-12-19T19:03:30.383Z,27.43
2022-12-19T19:06:48.583Z,24.43
2022-12-19T19:09:56.715Z,25.23
2022-12-19T19:13:37.575Z,29.20
2022-12-19T19:16:44.315Z,30.70
2022-12-19T19:19:50.400Z,35.13
2022-12-19T19:23:17.295Z,27.67
2022-12-19T19:26:33.351Z,29.43
2022-12-19T19:29:39.041Z,30.40
2022-12-19T19:32:48.533Z,27.80
2022-12-19T19:35:57.789Z,26.20
2022-12-19T19:39:10.311Z,32.27
2022-12-19T19:42:17.674Z,33.60
2022-12-19T19:45:25.936Z,32.17
2022-12-19T19:48:35.360Z,37.80
2022-12-19T19:51:45.392Z,30.07
2022-12-19T19:55:00.061Z,37.30
2022-12-19T19:58:12.215Z,28.67
2022-12-19T20:01:20.202Z,30.03
2022-12-19T20:04:31.772Z,31.47
2022-12-19T20:07:43.109Z,32.73
2022-12-19T20:10:57.866Z,28.63
2022-12-19T20:14:04.625Z,28.13
2022-12-19T20:17:17.550Z,31.87
2022-12-19T20:20:30.742Z,28.33
2022-12-19T20:23:37.917Z,26.80
2022-12-19T20:26:45.092Z,29.53
2022-12-19T20:29:53.419Z,25.83
2022-12-19T20:33:03.393Z,25.27
2022-12-19T20:36:12.341Z,25.07
2022-12-19T20:39:24.718Z,26.73
2022-12-19T20:42:43.314Z,23.57
2022-12-19T20:45:51.253Z,26.43
2022-12-19T20:52:23.409Z,25.37
2022-12-19T20:55:45.083Z,23.80
2022-12-19T20:59:05.701Z,21.80
2022-12-19T21:02:13.628Z,22.90
2022-12-19T21:05:25.791Z,20.33
2022-12-19T21:08:37.268Z,21.23
2022-12-19T21:11:43.441Z,20.33
2022-12-19T21:14:50.265Z,17.30
2022-12-19T21:18:05.110Z,17.63
2022-12-19T21:21:17.298Z,17.37
2022-12-19T21:24:23.244Z,15.30
2022-12-19T21:27:30.880Z,24.47
2022-12-19T21:30:40.337Z,20.57
2022-12-19T21:33:48.718Z,19.20
2022-12-19T21:36:56.044Z,21.53
2022-12-19T21:40:01.697Z,22.53
2022-12-19T21:43:12.237Z,23.93
2022-12-19T21:46:25.133Z,19.93
2022-12-19T21:49:31.991Z,22.63
2022-12-19T21:52:41.105Z,23.33
2022-12-19T21:55:46.386Z,20.00
2022-12-19T21:58:55.447Z,25.73
2022-12-19T22:02:03.519Z,20.90
2022-12-19T22:05:09.829Z,20.10
2022-12-19T22:08:18.590Z,27.53
2022-12-19T22:11:29.266Z,19.50
2022-12-19T22:14:36.566Z,25.67
2022-12-19T22:17:48.641Z,22.80
2022-12-19T22:21:03.691Z,24.97
2022-12-19T22:24:11.267Z,22.57
2022-12-19T22:27:18.496Z,20.53
2022-12-19T22:30:28.482Z,20.30
2022-12-19T22:33:35.480Z,16.93
2022-12-19T22:36:42.516Z,24.97
2022-12-19T22:39:47.993Z,18.30
2022-12-19T22:43:20.740Z,19.67
2022-12-19T22:47:23.255Z,19.10
2022-12-19T22:50:31.078Z,19.20
2022-12-19T22:53:37.000Z,16.03
2022-12-19T22:56:42.750Z,16.33
2022-12-19T22:59:51.320Z,14.93
2022-12-19T23:02:58.612Z,13.83
2022-12-19T23:06:08.517Z,13.60
2022-12-19T23:09:17.572Z,18.50
2022-12-19T23:12:24.240Z,15.47
2022-12-19T23:15:29.836Z,17.47
2022-12-19T23:18:36.696Z,15.00
2022-12-19T23:21:43.911Z,17.27
2022-12-19T23:24:53.988Z,14.93
2022-12-19T23:27:59.453Z,17.47
2022-12-19T23:31:08.230Z,16.77
2022-12-19T23:34:18.568Z,16.57
2022-12-19T23:37:28.692Z,14.60
2022-12-19T23:40:36.439Z,18.17
2022-12-19T23:43:42.500Z,14.97
2022-12-19T23:46:48.528Z,15.13
2022-12-19T23:49:55.885Z,12.77
2022-12-19T23:53:03.160Z,15.30
2022-12-19T23:56:13.156Z,16.20
2022-12-19T23:59:20.385Z,15.80
